Time;durP1;ratioP1;P1;durP2;ratioP2;P2;SDS_P1;SDS_P2;PMS_P1;PMS_P2;Temp;Humidity;BMP_temperature;BMP_pressure;BME280_temperature;BME280_humidity;BME280_pressure;Samples;Min_cycle;Max_cycle;Signal;HPM_P1;HPM_P2
2022/09/26 00:01:41;;;;;;;7.13;4.15;;;;;;;10.57;100.00;100808.66;5050430;28;20128;-55
2022/09/26 00:04:15;;;;;;;9.68;4.03;;;;;;;10.55;100.00;100797.41;5051897;28;20045;-54
2022/09/26 00:06:48;;;;;;;8.00;4.32;;;;;;;10.47;100.00;100790.03;5052368;28;20084;-56
2022/09/26 00:09:18;;;;;;;8.43;4.43;;;;;;;10.45;100.00;100786.63;5052282;28;20043;-56
2022/09/26 00:11:46;;;;;;;7.30;4.03;;;;;;;10.45;100.00;100780.53;5050966;28;20052;-56
2022/09/26 00:14:17;;;;;;;7.90;4.18;;;;;;;10.59;100.00;100783.13;5051984;28;20384;-53
2022/09/26 00:16:48;;;;;;;7.10;4.60;;;;;;;10.60;100.00;100781.31;5050159;28;20033;-55
2022/09/26 00:19:17;;;;;;;8.15;4.53;;;;;;;10.62;100.00;100777.66;5051665;28;20033;-55
2022/09/26 00:21:45;;;;;;;7.93;4.10;;;;;;;10.57;100.00;100766.59;5051228;28;20521;-53
2022/09/26 00:24:15;;;;;;;7.47;4.45;;;;;;;10.51;100.00;100766.97;5051812;28;20057;-56
2022/09/26 00:26:43;;;;;;;8.20;4.40;;;;;;;10.52;100.00;100763.41;5052055;28;20060;-56
2022/09/26 00:29:12;;;;;;;10.77;4.85;;;;;;;10.54;100.00;100753.66;5051870;28;20142;-56
2022/09/26 00:31:43;;;;;;;10.63;4.63;;;;;;;10.55;100.00;100752.72;5049750;28;20060;-56
2022/09/26 00:34:12;;;;;;;6.47;4.15;;;;;;;10.57;100.00;100756.06;5051424;28;20090;-56
2022/09/26 00:36:40;;;;;;;8.13;4.40;;;;;;;10.58;100.00;100746.38;5051498;28;20049;-57
2022/09/26 00:39:11;;;;;;;8.20;4.35;;;;;;;10.57;100.00;100744.72;5051413;28;20047;-57
2022/09/26 00:41:41;;;;;;;7.22;4.47;;;;;;;10.57;100.00;100732.41;5051018;28;20052;-55
2022/09/26 00:44:40;;;;;;;7.10;3.80;;;;;;;10.58;100.00;100727.97;5051800;28;20060;-56
2022/09/26 00:47:25;;;;;;;9.02;4.20;;;;;;;10.59;100.00;100730.53;5049663;28;20159;-54
2022/09/26 00:49:56;;;;;;;8.13;3.67;;;;;;;10.62;100.00;100724.19;5051085;28;20067;-56
2022/09/26 00:52:28;;;;;;;7.60;3.63;;;;;;;10.63;100.00;100716.22;5050852;28;20048;-53
2022/09/26 00:55:00;;;;;;;8.43;4.00;;;;;;;10.65;100.00;100709.06;5051623;28;20086;-55
2022/09/26 00:57:33;;;;;;;8.30;3.65;;;;;;;10.69;100.00;100704.44;5050948;28;20049;-55
2022/09/26 01:00:05;;;;;;;10.10;4.00;;;;;;;10.77;100.00;100693.38;5051490;28;20468;-56
2022/09/26 01:02:33;;;;;;;7.60;3.92;;;;;;;10.79;100.00;100691.50;5049686;28;20407;-53
2022/09/26 01:05:03;;;;;;;6.97;3.17;;;;;;;10.79;100.00;100688.88;5050269;28;20049;-54
2022/09/26 01:07:33;;;;;;;8.18;3.58;;;;;;;10.79;100.00;100684.44;5051337;28;20053;-55
2022/09/26 01:10:03;;;;;;;7.70;3.28;;;;;;;10.81;100.00;100676.44;5051360;28;20106;-56
2022/09/26 01:12:36;;;;;;;9.27;3.72;;;;;;;10.81;100.00;100686.97;5049534;28;20454;-54
2022/09/26 01:15:06;;;;;;;11.07;4.05;;;;;;;10.83;100.00;100682.44;5050923;28;20496;-55
2022/09/26 01:17:34;;;;;;;6.55;3.53;;;;;;;10.87;100.00;100683.91;5049267;28;20103;-53
2022/09/26 01:20:17;;;;;;;7.40;3.67;;;;;;;10.91;100.00;100677.50;5051320;28;20037;-54
2022/09/26 01:23:05;;;;;;;;;;;;;;;10.94;100.00;100669.38;5051442;28;20087;-52
2022/09/26 01:25:56;;;;;;;8.27;3.85;;;;;;;10.92;100.00;100657.28;5050896;28;20346;-52
2022/09/26 01:28:42;;;;;;;7.70;4.07;;;;;;;10.95;100.00;100644.75;5050684;28;20076;-51
2022/09/26 01:31:21;;;;;;;6.78;3.65;;;;;;;10.96;100.00;100637.69;5049444;28;20931;-50
2022/09/26 01:33:56;;;;;;;6.82;3.80;;;;;;;10.95;100.00;100630.78;5050917;28;20436;-51
2022/09/26 01:36:59;;;;;;;7.28;3.95;;;;;;;11.04;100.00;100622.22;5050750;28;20064;-52
2022/09/26 01:39:37;;;;;;;8.40;3.83;;;;;;;11.07;100.00;100618.53;5050558;28;20053;-52
2022/09/26 01:42:16;;;;;;;8.35;3.83;;;;;;;11.07;100.00;100608.00;5049509;28;20064;-52
2022/09/26 01:44:50;;;;;;;7.78;3.75;;;;;;;11.01;100.00;100598.75;5050249;28;20048;-53
2022/09/26 01:47:26;;;;;;;7.28;4.03;;;;;;;10.95;100.00;100599.19;5048025;28;20114;-50
2022/09/26 01:49:59;;;;;;;7.90;3.75;;;;;;;10.95;100.00;100586.06;5050477;28;20041;-53
2022/09/26 01:52:36;;;;;;;9.25;4.07;;;;;;;10.91;100.00;100585.41;5050586;28;20080;-52
2022/09/26 01:55:10;;;;;;;8.77;3.40;;;;;;;10.87;100.00;100578.69;5050650;28;20049;-53
2022/09/26 01:57:47;;;;;;;8.77;3.90;;;;;;;10.84;100.00;100571.03;5049858;28;20045;-53
2022/09/26 02:00:17;;;;;;;8.90;3.97;;;;;;;10.93;100.00;100567.72;5050184;28;20053;-52
2022/09/26 02:02:48;;;;;;;7.28;4.15;;;;;;;10.96;100.00;100554.34;5048591;28;20553;-52
2022/09/26 02:05:22;;;;;;;7.68;3.72;;;;;;;10.96;100.00;100543.84;5048030;28;20040;-54
2022/09/26 02:07:56;;;;;;;7.28;3.70;;;;;;;10.94;100.00;100544.88;5049306;28;20060;-53
2022/09/26 02:10:29;;;;;;;6.22;3.58;;;;;;;10.95;100.00;100539.50;5050071;28;20102;-52
2022/09/26 02:13:03;;;;;;;9.90;4.13;;;;;;;10.95;100.00;100534.25;5050117;28;20037;-50
2022/09/26 02:15:34;;;;;;;10.82;3.90;;;;;;;10.95;100.00;100529.00;5050064;28;20712;-54
2022/09/26 02:18:13;;;;;;;9.38;3.80;;;;;;;10.97;100.00;100524.44;5048510;28;20546;-52
2022/09/26 02:20:46;;;;;;;9.38;3.80;;;;;;;10.96;100.00;100522.78;5050223;28;20056;-52
2022/09/26 02:23:15;;;;;;;7.75;3.65;;;;;;;10.96;100.00;100520.16;5049954;28;20531;-54
2022/09/26 02:25:43;;;;;;;8.18;3.70;;;;;;;11.01;100.00;100511.09;5049267;28;20508;-52
2022/09/26 02:28:13;;;;;;;12.88;3.72;;;;;;;10.97;100.00;100506.03;5049275;28;20076;-52
2022/09/26 02:30:44;;;;;;;10.98;3.97;;;;;;;10.99;100.00;100501.50;5049865;28;20704;-51
2022/09/26 02:33:14;;;;;;;7.55;3.58;;;;;;;10.99;100.00;100490.97;5048401;28;20056;-53
2022/09/26 02:38:28;;;;;;;8.60;3.60;;;;;;;10.93;100.00;100487.94;5047086;28;20053;-55
2022/09/26 02:41:05;;;;;;;7.05;3.35;;;;;;;10.92;100.00;100484.50;5050179;28;20053;-55
2022/09/26 02:43:43;;;;;;;9.20;3.45;;;;;;;10.97;100.00;100484.16;5049720;28;20123;-55
2022/09/26 02:46:39;;;;;;;8.43;3.65;;;;;;;10.97;100.00;100477.09;5048160;28;20218;-55
2022/09/26 02:49:21;;;;;;;7.78;3.35;;;;;;;10.94;100.00;100477.31;5049773;28;20052;-55
2022/09/26 02:52:07;;;;;;;9.20;3.70;;;;;;;10.93;100.00;100474.78;5049841;28;20056;-55
2022/09/26 02:54:45;;;;;;;9.35;4.25;;;;;;;10.96;100.00;100464.03;5049934;28;20045;-54
2022/09/26 02:57:28;;;;;;;8.50;4.07;;;;;;;10.94;100.00;100472.06;5049293;28;20052;-55
2022/09/26 03:00:03;;;;;;;8.57;3.65;;;;;;;10.95;100.00;100465.84;5050087;28;20047;-55
2022/09/26 03:02:38;;;;;;;7.80;4.10;;;;;;;10.93;100.00;100457.22;5048243;28;20052;-55
2022/09/26 03:05:13;;;;;;;6.25;3.20;;;;;;;10.93;100.00;100459.84;5049557;28;20095;-55
2022/09/26 03:07:46;;;;;;;9.05;3.50;;;;;;;10.95;100.00;100463.22;5049899;28;20072;-55
2022/09/26 03:10:15;;;;;;;8.77;3.90;;;;;;;10.95;100.00;100450.06;5049628;28;20060;-55
2022/09/26 03:12:45;;;;;;;8.68;3.83;;;;;;;10.98;100.00;100446.38;5049426;28;20072;-54
2022/09/26 03:15:14;;;;;;;8.43;3.67;;;;;;;10.97;100.00;100444.69;5049421;28;20583;-53
2022/09/26 03:17:46;;;;;;;7.57;3.45;;;;;;;11.01;100.00;100442.69;5050250;28;20063;-52
2022/09/26 03:20:18;;;;;;;6.38;3.35;;;;;;;10.93;100.00;100433.53;5051501;28;20049;-54
2022/09/26 03:22:46;;;;;;;9.10;4.03;;;;;;;10.90;100.00;100432.94;5053551;28;20073;-55
2022/09/26 03:25:18;;;;;;;7.35;3.58;;;;;;;10.91;100.00;100429.34;5052791;28;20041;-53
2022/09/26 03:27:47;;;;;;;10.43;4.10;;;;;;;10.90;100.00;100435.56;5052877;28;20048;-53
2022/09/26 03:30:17;;;;;;;7.90;3.75;;;;;;;10.94;100.00;100434.38;5052837;28;20149;-51
2022/09/26 03:32:45;;;;;;;9.18;3.75;;;;;;;10.93;100.00;100428.25;5052010;28;20063;-47
2022/09/26 03:35:15;;;;;;;6.90;3.28;;;;;;;10.83;100.00;100422.00;5052661;28;20063;-50
2022/09/26 03:37:44;;;;;;;8.60;3.28;;;;;;;10.82;100.00;100417.69;5051675;28;20520;-52
2022/09/26 03:40:12;;;;;;;9.38;3.78;;;;;;;10.83;100.00;100416.75;5052666;28;20055;-51
2022/09/26 03:42:41;;;;;;;7.68;3.58;;;;;;;10.82;100.00;100409.81;5051824;28;20204;-53
2022/09/26 03:45:10;;;;;;;6.78;3.45;;;;;;;10.82;100.00;100408.03;5051175;28;20049;-50
2022/09/26 03:47:38;;;;;;;8.32;3.53;;;;;;;10.83;100.00;100408.88;5050954;28;20107;-51
2022/09/26 03:50:07;;;;;;;7.90;3.38;;;;;;;10.73;100.00;100410.47;5052089;28;20132;-49
2022/09/26 03:52:37;;;;;;;9.95;3.97;;;;;;;10.75;100.00;100403.31;5052294;28;20041;-52
2022/09/26 03:55:06;;;;;;;7.10;3.33;;;;;;;10.74;100.00;100402.47;5052166;28;20053;-50
2022/09/26 03:57:34;;;;;;;6.68;3.45;;;;;;;10.68;100.00;100402.09;5051816;28;20049;-52
2022/09/26 04:00:06;;;;;;;7.07;3.30;;;;;;;10.70;100.00;100394.91;5052884;28;20099;-50
2022/09/26 04:02:34;;;;;;;5.82;3.08;;;;;;;10.68;100.00;100375.81;5049920;28;20056;-52
2022/09/26 04:05:02;;;;;;;7.85;3.50;;;;;;;10.67;100.00;100376.75;5052410;28;20381;-50
2022/09/26 04:07:30;;;;;;;7.95;3.20;;;;;;;10.59;100.00;100375.53;5052592;28;20469;-51
2022/09/26 04:10:00;;;;;;;8.55;3.25;;;;;;;10.63;100.00;100369.09;5052612;28;20036;-52
2022/09/26 04:12:28;;;;;;;7.93;3.42;;;;;;;10.61;100.00;100362.25;5051813;28;20041;-52
2022/09/26 04:14:56;;;;;;;6.63;3.13;;;;;;;10.61;100.00;100360.47;5052486;28;20500;-52
2022/09/26 04:17:24;;;;;;;10.95;3.28;;;;;;;10.55;100.00;100352.16;5050508;28;20049;-53
2022/09/26 04:19:53;;;;;;;7.63;3.25;;;;;;;10.55;100.00;100345.13;5050962;28;20057;-51
2022/09/26 04:22:21;;;;;;;6.32;3.17;;;;;;;10.49;100.00;100337.69;5051784;28;20063;-50
2022/09/26 04:24:50;;;;;;;7.70;3.22;;;;;;;10.45;100.00;100326.53;5051779;28;20454;-54
2022/09/26 04:27:20;;;;;;;6.72;3.20;;;;;;;10.41;100.00;100313.75;5050614;28;20484;-54
2022/09/26 04:29:48;;;;;;;6.80;2.78;;;;;;;10.41;100.00;100309.31;5057845;28;20049;-53
2022/09/26 04:32:16;;;;;;;5.90;3.13;;;;;;;10.44;100.00;100305.63;5069270;28;20052;-52
2022/09/26 04:34:45;;;;;;;7.07;2.90;;;;;;;10.39;100.00;100300.72;5071511;28;20056;-53
2022/09/26 04:37:13;;;;;;;10.20;3.50;;;;;;;10.44;100.00;100298.59;5071433;28;20048;-50
2022/09/26 04:39:42;;;;;;;6.30;3.17;;;;;;;10.46;100.00;100296.69;5071710;28;20067;-50
2022/09/26 04:42:10;;;;;;;7.50;2.72;;;;;;;10.43;100.00;100286.41;5071062;28;20139;-52
2022/09/26 04:44:40;;;;;;;7.90;2.67;;;;;;;10.46;100.00;100285.34;5071983;28;20521;-53
2022/09/26 04:47:08;;;;;;;7.68;2.97;;;;;;;10.57;100.00;100264.34;5069480;28;20109;-50
2022/09/26 04:49:36;;;;;;;5.25;2.72;;;;;;;10.47;100.00;100261.56;5071223;28;20064;-53
2022/09/26 04:52:04;;;;;;;6.57;2.60;;;;;;;10.45;100.00;100260.00;5071113;28;20720;-52
2022/09/26 04:54:36;;;;;;;7.50;2.95;;;;;;;10.44;100.00;100261.78;5069680;28;20060;-54
2022/09/26 04:57:06;;;;;;;6.07;2.60;;;;;;;10.40;100.00;100259.47;5070468;28;20495;-53
2022/09/26 04:59:34;;;;;;;5.25;2.42;;;;;;;10.41;100.00;100261.16;5071392;28;20114;-54
2022/09/26 05:02:07;;;;;;;10.75;2.67;;;;;;;10.42;100.00;100254.97;5069063;28;20052;-52
2022/09/26 05:04:35;;;;;;;10.73;2.60;;;;;;;10.44;100.00;100243.41;5070935;28;20052;-54
2022/09/26 05:07:03;;;;;;;6.65;2.75;;;;;;;10.38;100.00;100230.69;5070929;28;20044;-52
2022/09/26 05:09:31;;;;;;;7.43;2.67;;;;;;;10.42;100.00;100224.25;5070658;28;20056;-51
2022/09/26 05:12:03;;;;;;;8.45;2.55;;;;;;;10.45;100.00;100223.19;5070317;28;20045;-51
2022/09/26 05:14:34;;;;;;;6.53;2.72;;;;;;;10.38;100.00;100230.69;5071068;28;20082;-52
2022/09/26 05:17:03;;;;;;;5.70;2.97;;;;;;;10.40;100.00;100218.28;5068825;28;20048;-54
2022/09/26 05:19:32;;;;;;;7.93;2.58;;;;;;;10.42;100.00;100223.44;5069501;28;20143;-55
2022/09/26 05:22:00;;;;;;;9.70;3.03;;;;;;;10.47;100.00;100216.00;5070839;28;20052;-54
2022/09/26 05:27:16;;;;;;;7.82;2.67;;;;;;;10.45;100.00;100205.63;5069649;28;20051;-52
2022/09/26 05:29:44;;;;;;;7.15;3.00;;;;;;;10.49;100.00;100203.59;5070937;28;20136;-51
2022/09/26 05:32:14;;;;;;;4.97;2.83;;;;;;;10.39;100.00;100197.34;5068613;28;20052;-50
2022/09/26 05:34:47;;;;;;;8.23;3.10;;;;;;;10.33;100.00;100198.63;5070336;28;20465;-49
2022/09/26 05:37:16;;;;;;;7.80;3.15;;;;;;;10.27;100.00;100189.41;5070339;28;20567;-50
2022/09/26 05:42:29;;;;;;;10.00;3.08;;;;;;;10.29;100.00;100182.25;5070223;28;20094;-50
2022/09/26 05:45:02;;;;;;;8.50;3.20;;;;;;;10.27;100.00;100167.53;5071009;28;20052;-54
2022/09/26 05:47:36;;;;;;;7.72;3.20;;;;;;;10.24;100.00;100165.97;5068572;28;20049;-54
2022/09/26 05:50:08;;;;;;;9.02;3.47;;;;;;;10.23;100.00;100166.94;5070424;28;20047;-53
2022/09/26 05:52:36;;;;;;;;;;;;;;;10.25;100.00;100165.03;5070646;28;20052;-53
2022/09/26 05:55:06;;;;;;;7.60;2.67;;;;;;;10.24;100.00;100163.34;5069593;28;19920;-54
2022/09/26 05:57:34;;;;;;;8.43;3.47;;;;;;;10.25;100.00;100158.94;5070026;28;20102;-49
2022/09/26 06:00:06;;;;;;;9.23;3.33;;;;;;;10.23;100.00;100159.03;5069747;28;20048;-52
2022/09/26 06:02:35;;;;;;;9.13;3.22;;;;;;;10.27;100.00;100157.03;5068309;28;20098;-52
2022/09/26 06:05:04;;;;;;;7.10;3.00;;;;;;;10.14;100.00;100152.69;5069779;28;20049;-52
2022/09/26 06:07:32;;;;;;;5.60;2.80;;;;;;;10.14;100.00;100150.06;5069025;28;20048;-54
2022/09/26 06:10:02;;;;;;;8.77;3.25;;;;;;;10.16;100.00;100139.44;5070377;28;20044;-51
2022/09/26 06:12:30;;;;;;;7.40;3.22;;;;;;;10.17;100.00;100145.53;5069464;28;20041;-53
2022/09/26 06:14:58;;;;;;;7.40;3.38;;;;;;;10.18;100.00;100128.81;5070110;28;20495;-55
2022/09/26 06:17:26;;;;;;;10.45;3.60;;;;;;;10.21;100.00;100129.44;5067966;28;20098;-52
2022/09/26 06:19:55;;;;;;;8.15;3.38;;;;;;;10.21;100.00;100128.56;5070012;28;20043;-53
2022/09/26 06:22:25;;;;;;;8.07;3.22;;;;;;;10.23;100.00;100118.81;5069343;28;20701;-54
2022/09/26 06:24:53;;;;;;;8.70;3.30;;;;;;;10.25;100.00;100112.47;5070226;28;20454;-53
2022/09/26 06:27:24;;;;;;;7.28;3.20;;;;;;;10.27;100.00;100104.47;5069446;28;20156;-55
2022/09/26 06:29:52;;;;;;;7.57;2.83;;;;;;;10.31;100.00;100104.13;5070225;28;20044;-49
2022/09/26 06:32:20;;;;;;;7.70;3.22;;;;;;;10.26;100.00;100095.72;5068038;28;20060;-49
2022/09/26 06:34:49;;;;;;;7.43;3.00;;;;;;;10.25;100.00;100101.09;5070025;28;20072;-53
2022/09/26 06:37:18;;;;;;;10.07;3.50;;;;;;;10.22;100.00;100096.09;5069570;28;20049;-54
2022/09/26 06:39:46;;;;;;;10.13;3.95;;;;;;;10.29;100.00;100082.38;5070101;28;20102;-53
2022/09/26 06:42:14;;;;;;;8.43;3.75;;;;;;;10.24;100.00;100081.03;5069124;28;20451;-52
2022/09/26 06:44:43;;;;;;;9.18;3.10;;;;;;;10.28;100.00;100078.06;5070187;28;20399;-54
2022/09/26 06:47:12;;;;;;;7.20;3.08;;;;;;;10.27;100.00;100073.75;5067671;28;20052;-54
2022/09/26 06:49:40;;;;;;;7.97;3.85;;;;;;;10.34;100.00;100076.75;5069987;28;20056;-53
2022/09/26 06:52:11;;;;;;;9.23;3.33;;;;;;;10.38;100.00;100070.34;5071705;28;20109;-55
2022/09/26 06:54:40;;;;;;;9.88;3.67;;;;;;;10.40;100.00;100055.31;5073758;28;20517;-53
2022/09/26 06:57:13;;;;;;;12.02;3.10;;;;;;;10.37;100.00;100055.53;5072965;28;20053;-52
2022/09/26 06:59:42;;;;;;;11.75;4.05;;;;;;;10.48;100.00;100054.69;5073796;28;20063;-50
2022/09/26 07:02:10;;;;;;;10.45;3.55;;;;;;;10.54;100.00;100058.63;5071600;28;20049;-52
2022/09/26 07:04:39;;;;;;;11.45;3.90;;;;;;;10.49;100.00;100045.88;5073285;28;20130;-52
2022/09/26 07:07:07;;;;;;;10.80;3.40;;;;;;;10.56;100.00;100047.06;5073672;28;20074;-50
2022/09/26 07:09:35;;;;;;;9.23;3.47;;;;;;;10.61;100.00;100044.09;5073673;28;20068;-51
2022/09/26 07:12:06;;;;;;;10.43;3.65;;;;;;;10.65;100.00;100025.31;5071865;28;20057;-52
2022/09/26 07:14:42;;;;;;;11.77;3.50;;;;;;;10.65;100.00;100025.31;5073567;28;20044;-52
2022/09/26 07:17:15;;;;;;;7.18;3.25;;;;;;;10.68;100.00;100023.41;5071282;28;20042;-50
2022/09/26 07:19:43;;;;;;;8.13;3.33;;;;;;;10.75;100.00;100014.91;5072777;28;20507;-51
2022/09/26 07:22:15;;;;;;;8.52;3.45;;;;;;;10.72;100.00;100016.94;5072801;28;20072;-51
2022/09/26 07:24:48;;;;;;;8.20;3.30;;;;;;;10.67;100.00;100011.22;5073399;28;20114;-51
2022/09/26 07:27:18;;;;;;;7.63;3.03;;;;;;;10.75;100.00;100006.19;5072729;28;20040;-54
2022/09/26 07:29:47;;;;;;;10.18;3.05;;;;;;;10.71;100.00;100000.31;5073236;28;20431;-53
2022/09/26 07:32:15;;;;;;;9.35;3.38;;;;;;;10.75;100.00;100000.91;5071048;28;20123;-53
2022/09/26 07:34:43;;;;;;;9.32;3.75;;;;;;;10.70;100.00;99990.75;5072391;28;20123;-53
2022/09/26 07:37:11;;;;;;;9.32;3.30;;;;;;;10.71;100.00;99996.88;5072769;28;20076;-53
2022/09/26 07:39:40;;;;;;;8.65;3.20;;;;;;;10.64;100.00;99991.25;5073503;28;20499;-53
2022/09/26 07:42:08;;;;;;;7.93;3.00;;;;;;;10.64;100.00;99989.44;5072477;28;20052;-54
2022/09/26 07:44:39;;;;;;;8.88;3.60;;;;;;;10.69;100.00;99983.84;5075017;28;20052;-53
2022/09/26 07:50:14;;;;;;;8.07;3.05;;;;;;;10.75;100.00;99972.00;5072193;28;20056;-55
2022/09/26 07:52:44;;;;;;;9.27;2.75;;;;;;;10.78;100.00;99966.47;5073953;28;20052;-54
2022/09/26 07:55:14;;;;;;;7.13;2.72;;;;;;;10.84;100.00;99958.13;5074683;28;20049;-54
2022/09/26 07:57:43;;;;;;;7.82;2.95;;;;;;;10.83;100.00;99965.16;5074810;28;20487;-55
2022/09/26 08:00:16;;;;;;;7.63;2.90;;;;;;;10.92;100.00;99958.31;5074830;28;20039;-56
2022/09/26 08:02:45;;;;;;;7.60;3.03;;;;;;;10.95;100.00;99962.50;5073087;28;20491;-54
2022/09/26 08:05:18;;;;;;;9.32;3.17;;;;;;;10.96;100.00;99961.53;5072106;28;20075;-54
2022/09/26 08:07:48;;;;;;;;;;;;;;;10.97;100.00;99953.50;5074731;28;20108;-54
2022/09/26 08:10:20;;;;;;;7.95;3.30;;;;;;;11.05;100.00;99957.34;5074577;28;19928;-57
2022/09/26 08:12:49;;;;;;;7.97;3.30;;;;;;;11.11;100.00;99951.56;5074485;28;20077;-55
2022/09/26 08:15:19;;;;;;;7.90;3.25;;;;;;;11.14;100.00;99948.69;5074669;28;20381;-54
2022/09/26 08:17:47;;;;;;;8.30;3.03;;;;;;;11.17;100.00;99953.69;5074150;28;20044;-55
2022/09/26 08:20:15;;;;;;;7.47;3.03;;;;;;;11.21;100.00;99957.75;5073900;28;20040;-56
2022/09/26 08:22:43;;;;;;;8.05;2.47;;;;;;;11.22;100.00;99948.91;5074264;28;20115;-56
2022/09/26 08:25:11;;;;;;;8.60;2.90;;;;;;;11.22;100.00;99954.16;5074103;28;20056;-56
2022/09/26 08:27:42;;;;;;;7.10;2.80;;;;;;;11.17;100.00;99945.81;5073903;28;20136;-53
2022/09/26 08:30:11;;;;;;;9.75;3.25;;;;;;;11.27;100.00;99944.06;5074210;28;20048;-55
2022/09/26 08:32:41;;;;;;;9.60;2.50;;;;;;;11.20;100.00;99936.81;5073955;28;20120;-56
2022/09/26 08:35:13;;;;;;;9.30;3.08;;;;;;;11.24;100.00;99939.06;5073908;28;20052;-54
2022/09/26 08:37:42;;;;;;;7.65;2.67;;;;;;;11.28;100.00;99921.25;5073904;28;20114;-56
2022/09/26 08:40:11;;;;;;;7.68;2.67;;;;;;;11.30;100.00;99925.41;5072492;28;20063;-56
2022/09/26 08:42:50;;;;;;;8.57;2.53;;;;;;;11.24;100.00;99925.91;5071564;28;20048;-56
2022/09/26 08:48:38;;;;;;;9.23;3.03;;;;;;;11.35;100.00;99911.88;5073712;28;20044;-55
2022/09/26 08:51:16;;;;;;;7.63;2.53;;;;;;;11.42;100.00;99914.81;5073897;28;20053;-55
2022/09/26 08:53:50;;;;;;;6.93;2.80;;;;;;;11.51;100.00;99908.78;5073891;28;20433;-56
2022/09/26 08:56:22;;;;;;;8.38;2.92;;;;;;;11.44;100.00;99899.75;5073840;28;20461;-56
2022/09/26 08:58:52;;;;;;;8.98;2.90;;;;;;;11.57;100.00;99910.88;5073523;28;20491;-57
2022/09/26 09:01:26;;;;;;;7.30;2.50;;;;;;;11.51;100.00;99900.88;5073603;28;20056;-54
2022/09/26 09:04:05;;;;;;;10.93;2.63;;;;;;;11.53;100.00;99898.94;5073447;28;20052;-51
2022/09/26 09:06:35;;;;;;;6.82;2.50;;;;;;;11.58;100.00;99894.13;5073214;28;20560;-54
2022/09/26 09:09:03;;;;;;;6.50;2.67;;;;;;;11.61;100.00;99891.22;5073337;28;20051;-51
2022/09/26 09:11:53;;;;;;;6.50;2.42;;;;;;;11.62;100.00;99892.09;5073598;28;20051;-53
2022/09/26 09:14:39;;;;;;;9.98;2.70;;;;;;;11.57;100.00;99895.09;5072457;28;20437;-52
2022/09/26 09:17:20;;;;;;;8.35;2.40;;;;;;;11.63;100.00;99888.47;5068914;28;20097;-50
2022/09/26 09:19:58;;;;;;;7.75;2.35;;;;;;;11.64;100.00;99882.25;5071454;28;20036;-55
2022/09/26 09:22:43;;;;;;;7.15;2.75;;;;;;;11.64;100.00;99883.09;5073026;28;20056;-55
2022/09/26 09:25:18;;;;;;;7.43;2.67;;;;;;;11.60;100.00;99868.53;5072244;28;20540;-53
2022/09/26 09:28:04;;;;;;;9.13;2.95;;;;;;;11.66;100.00;99873.25;5069988;28;20048;-50
2022/09/26 09:30:42;;;;;;;10.30;2.80;;;;;;;11.70;100.00;99865.06;5070081;28;20060;-50
2022/09/26 09:33:14;;;;;;;7.80;3.20;;;;;;;11.66;100.00;99877.69;5068724;28;20549;-52
2022/09/26 09:35:49;;;;;;;7.65;2.95;;;;;;;11.70;100.00;99859.81;5072604;28;20048;-51
2022/09/26 09:38:19;;;;;;;7.68;2.80;;;;;;;11.80;100.00;99855.44;5072534;28;20052;-51
2022/09/26 09:40:58;;;;;;;7.53;2.97;;;;;;;11.80;100.00;99856.25;5072546;28;20119;-53
2022/09/26 09:43:30;;;;;;;8.27;3.25;;;;;;;11.79;100.00;99856.41;5072640;28;20051;-53
2022/09/26 09:46:04;;;;;;;7.45;2.88;;;;;;;11.80;100.00;99847.53;5071256;28;20055;-51
2022/09/26 09:48:33;;;;;;;9.13;3.05;;;;;;;11.88;100.00;99850.34;5068812;28;20051;-50
2022/09/26 09:51:18;;;;;;;8.48;3.10;;;;;;;11.72;100.00;99840.28;5070365;28;20455;-53
2022/09/26 09:54:03;;;;;;;6.85;3.03;;;;;;;11.82;100.00;99830.63;5070511;28;20076;-51
2022/09/26 09:56:38;;;;;;;9.00;3.20;;;;;;;11.80;100.00;99823.81;5070531;28;20061;-49
2022/09/26 09:59:20;;;;;;;10.10;3.20;;;;;;;11.86;100.00;99814.56;5072469;28;20051;-53
2022/09/26 10:01:55;;;;;;;9.05;3.50;;;;;;;11.89;100.00;99807.22;5072531;28;20106;-53
2022/09/26 10:04:34;;;;;;;11.45;3.35;;;;;;;11.91;100.00;99805.28;5072631;28;20044;-52
2022/09/26 10:07:04;;;;;;;8.48;3.03;;;;;;;11.97;100.00;99796.88;5072734;28;20052;-53
2022/09/26 10:09:38;;;;;;;6.32;2.85;;;;;;;11.95;100.00;99792.72;5072477;28;20507;-53
2022/09/26 10:12:15;;;;;;;6.55;3.05;;;;;;;11.83;100.00;99790.16;5072402;28;20052;-55
2022/09/26 10:14:49;;;;;;;7.47;3.20;;;;;;;11.85;100.00;99784.75;5072468;28;20502;-54
2022/09/26 10:17:20;;;;;;;8.38;3.10;;;;;;;11.92;100.00;99783.25;5072412;28;20685;-49
2022/09/26 10:19:48;;;;;;;7.57;3.20;;;;;;;11.78;100.00;99783.59;5104708;28;20055;-50
2022/09/26 10:22:24;;;;;;;7.28;3.40;;;;;;;11.86;100.00;99778.50;5072532;28;20505;-53
2022/09/26 10:25:00;;;;;;;9.30;3.70;;;;;;;11.95;100.00;99782.16;5104855;28;20074;-53
2022/09/26 10:27:36;;;;;;;9.52;3.75;;;;;;;11.83;100.00;99770.88;5074651;28;20048;-53
2022/09/26 10:30:24;;;;;;;7.53;3.40;;;;;;;11.82;100.00;99775.31;5076559;28;20399;-52
2022/09/26 10:32:57;;;;;;;9.00;3.30;;;;;;;11.81;100.00;99770.19;5076478;28;20049;-49
2022/09/26 10:35:28;;;;;;;7.35;3.15;;;;;;;11.82;100.00;99770.03;5076369;28;20044;-52
2022/09/26 10:38:05;;;;;;;7.22;3.50;;;;;;;11.82;100.00;99758.66;5076101;28;20450;-52
2022/09/26 10:40:47;;;;;;;6.88;3.35;;;;;;;11.87;100.00;99758.28;5075509;28;20053;-53
2022/09/26 10:43:25;;;;;;;6.50;3.28;;;;;;;11.90;100.00;99758.84;5076023;28;20110;-50
2022/09/26 10:45:59;;;;;;;8.15;3.40;;;;;;;11.98;100.00;99761.66;5075594;28;20052;-51
2022/09/26 10:48:46;;;;;;;7.65;3.17;;;;;;;11.92;100.00;99756.06;5074555;28;20045;-49
2022/09/26 10:51:28;;;;;;;9.70;3.50;;;;;;;11.73;100.00;99751.59;5076106;28;20048;-50
2022/09/26 10:54:05;;;;;;;8.55;3.60;;;;;;;11.88;100.00;99755.50;5075661;28;20036;-50
2022/09/26 10:56:38;;;;;;;8.88;3.25;;;;;;;11.87;100.00;99743.28;5075991;28;20051;-49
2022/09/26 10:59:12;;;;;;;8.48;4.28;;;;;;;11.97;100.00;99744.19;5075112;28;20087;-51
2022/09/26 11:01:44;;;;;;;10.27;3.88;;;;;;;11.92;100.00;99742.91;5072088;28;20040;-50
2022/09/26 11:05:55;;;;;;;8.10;3.70;;;;;;;11.91;100.00;99741.22;5075199;28;20041;-50
2022/09/26 11:07:10;;;;;;;8.38;3.33;;;;;;;11.87;100.00;99743.28;5076063;28;20773;-50
2022/09/26 11:09:39;;;;;;;10.88;4.03;;;;;;;11.89;100.00;99727.34;5075083;28;20150;-49
2022/09/26 11:12:22;;;;;;;9.98;3.97;;;;;;;11.87;100.00;99732.75;5072367;28;20434;-50
2022/09/26 11:14:56;;;;;;;7.07;3.38;;;;;;;11.86;100.00;99724.97;5075032;28;20040;-51
2022/09/26 11:17:42;;;;;;;7.65;3.50;;;;;;;11.90;100.00;99721.09;5075362;28;20518;-50
2022/09/26 11:20:17;;;;;;;8.02;3.60;;;;;;;11.84;100.00;99718.03;5073194;28;20131;-50
2022/09/26 11:22:53;;;;;;;9.95;3.97;;;;;;;11.88;100.00;99723.88;5074159;28;20052;-50
2022/09/26 11:25:26;;;;;;;8.15;3.30;;;;;;;11.90;100.00;99715.84;5074421;28;20529;-52
2022/09/26 11:28:04;;;;;;;10.07;4.28;;;;;;;11.87;100.00;99711.66;5075229;28;20052;-52
2022/09/26 11:30:39;;;;;;;8.77;3.53;;;;;;;11.86;100.00;99710.00;5075127;28;20127;-49
2022/09/26 11:33:12;;;;;;;9.27;4.40;;;;;;;11.96;100.00;99700.34;5074175;28;20083;-51
2022/09/26 11:35:52;;;;;;;8.75;3.60;;;;;;;11.86;100.00;99694.19;5075191;28;20040;-50
2022/09/26 11:38:37;;;;;;;8.52;3.60;;;;;;;11.76;100.00;99698.63;5074909;28;20055;-53
2022/09/26 11:41:35;;;;;;;9.70;3.90;;;;;;;11.72;100.00;99697.22;5075184;28;20112;-51
2022/09/26 11:44:26;;;;;;;7.15;3.53;;;;;;;11.77;100.00;99698.50;5075371;28;20434;-52
2022/09/26 11:47:07;;;;;;;7.32;3.03;;;;;;;11.78;100.00;99696.66;5074562;28;20068;-53
2022/09/26 11:49:57;;;;;;;6.93;3.38;;;;;;;11.76;100.00;99693.34;5072495;28;20044;-53
2022/09/26 11:52:41;;;;;;;6.57;3.10;;;;;;;11.84;100.00;99690.88;5074479;28;20510;-52
2022/09/26 11:55:23;;;;;;;9.05;3.60;;;;;;;11.74;100.00;99695.28;5075288;28;20052;-50
2022/09/26 11:58:03;;;;;;;6.65;3.05;;;;;;;11.74;100.00;99684.75;5074686;28;20045;-52
2022/09/26 12:00:42;;;;;;;6.63;3.10;;;;;;;11.76;100.00;99681.00;5074798;28;20045;-50